createdAt,value
2022-10-13T00:04:42.445Z,44.03
2022-10-13T00:09:44.741Z,41.20
2022-10-13T00:14:47.032Z,37.33
2022-10-13T00:19:49.347Z,43.30
2022-10-13T00:24:53.082Z,39.87
2022-10-13T00:29:55.476Z,38.47
2022-10-13T00:34:57.865Z,39.07
2022-10-13T00:40:00.141Z,40.37
2022-10-13T00:45:04.645Z,41.17
2022-10-13T00:50:12.025Z,36.23
2022-10-13T00:55:20.171Z,34.67
2022-10-13T01:00:24.281Z,34.83
2022-10-13T01:05:26.783Z,34.80
2022-10-13T01:10:30.592Z,33.53
2022-10-13T01:15:50.930Z,33.67
2022-10-13T01:21:05.513Z,34.33
2022-10-13T01:26:26.316Z,32.90
2022-10-13T01:31:41.851Z,30.57
2022-10-13T01:37:08.942Z,31.67
2022-10-13T01:42:19.877Z,30.37
2022-10-13T01:47:24.784Z,30.50
2022-10-13T01:52:34.559Z,29.80
2022-10-13T01:57:42.085Z,29.40
2022-10-13T02:02:50.812Z,27.47
2022-10-13T02:08:15.486Z,31.37
2022-10-13T02:13:22.149Z,31.03
2022-10-13T02:18:30.856Z,31.20
2022-10-13T02:23:33.244Z,30.80
2022-10-13T02:28:37.623Z,32.87
2022-10-13T02:33:40.026Z,30.83
2022-10-13T02:38:42.538Z,28.13
2022-10-13T02:43:44.813Z,27.80
2022-10-13T02:48:48.798Z,30.83
2022-10-13T02:53:51.950Z,30.47
2022-10-13T02:58:54.270Z,26.40
2022-10-13T03:03:56.660Z,30.10
2022-10-13T03:08:59.326Z,31.03
2022-10-13T03:14:01.604Z,28.53
2022-10-13T03:19:04.101Z,27.83
2022-10-13T03:24:06.885Z,26.97
2022-10-13T03:29:15.909Z,31.77
2022-10-13T03:34:20.331Z,28.37
2022-10-13T03:39:22.654Z,39.23
2022-10-13T03:44:24.973Z,52.00
2022-10-13T03:49:27.316Z,60.33
2022-10-13T03:54:29.598Z,35.00
2022-10-13T03:59:36.789Z,28.07
2022-10-13T04:04:39.439Z,29.60
2022-10-13T04:09:41.894Z,31.63
2022-10-13T04:14:44.224Z,30.83
2022-10-13T04:19:46.568Z,29.10
2022-10-13T04:24:48.910Z,28.07
2022-10-13T04:29:51.227Z,29.03
2022-10-13T04:34:53.514Z,26.83
2022-10-13T04:39:55.813Z,27.80
2022-10-13T04:44:58.082Z,28.40
2022-10-13T04:50:00.448Z,33.27
2022-10-13T04:55:02.900Z,29.80
2022-10-13T05:00:07.326Z,32.67
2022-10-13T05:05:10.214Z,33.33
2022-10-13T05:10:12.541Z,36.17
2022-10-13T05:15:14.918Z,34.57
2022-10-13T05:20:17.759Z,32.83
2022-10-13T05:25:20.503Z,31.77
2022-10-13T05:30:22.801Z,34.47
2022-10-13T05:35:26.397Z,34.47
2022-10-13T05:40:29.320Z,33.20
2022-10-13T05:45:35.617Z,36.40
2022-10-13T05:50:37.950Z,37.63
2022-10-13T05:55:40.335Z,32.40
2022-10-13T06:00:44.029Z,33.37
2022-10-13T06:05:49.237Z,31.60
2022-10-13T06:10:51.701Z,31.70
2022-10-13T06:15:54.637Z,32.57
2022-10-13T06:20:56.954Z,33.63
2022-10-13T06:25:59.246Z,32.63
2022-10-13T06:31:06.422Z,32.37
2022-10-13T06:36:09.195Z,31.37
2022-10-13T06:41:12.646Z,29.10
2022-10-13T06:46:14.988Z,29.00
2022-10-13T06:51:17.405Z,26.93
2022-10-13T06:56:19.948Z,27.10
2022-10-13T07:01:22.325Z,27.27
2022-10-13T07:06:24.885Z,26.43
2022-10-13T07:11:29.466Z,30.13
2022-10-13T07:16:34.608Z,27.80
2022-10-13T07:21:37.254Z,25.83
2022-10-13T07:26:39.716Z,26.50
2022-10-13T07:31:44.155Z,25.03
2022-10-13T07:36:46.529Z,22.67
2022-10-13T07:41:51.222Z,24.47
2022-10-13T07:46:53.831Z,24.37
2022-10-13T07:51:56.119Z,22.17
2022-10-13T07:56:58.537Z,24.43
2022-10-13T08:02:02.037Z,25.80
2022-10-13T08:07:06.026Z,23.17
2022-10-13T08:12:08.689Z,22.13
2022-10-13T08:17:11.030Z,22.57
2022-10-13T08:22:14.845Z,21.13
2022-10-13T08:27:22.410Z,21.50
2022-10-13T08:32:24.960Z,22.00
2022-10-13T08:37:27.271Z,20.63
2022-10-13T08:42:29.690Z,20.73
2022-10-13T08:47:44.138Z,19.80
2022-10-13T08:53:04.844Z,18.50
2022-10-13T08:58:17.058Z,16.90
2022-10-13T09:03:19.401Z,17.50
2022-10-13T09:08:23.243Z,14.63
2022-10-13T09:13:25.879Z,14.90
2022-10-13T09:18:33.471Z,14.83
2022-10-13T09:23:39.533Z,14.63
2022-10-13T09:28:44.388Z,15.63
2022-10-13T09:33:56.769Z,15.40
2022-10-13T09:39:29.096Z,13.70
2022-10-13T09:44:32.138Z,14.60
2022-10-13T09:49:39.222Z,13.73
2022-10-13T09:54:53.999Z,14.17
2022-10-13T10:00:03.889Z,13.47
2022-10-13T10:05:34.482Z,12.77
2022-10-13T10:10:40.793Z,12.17
2022-10-13T10:16:01.252Z,12.57
2022-10-13T10:21:07.430Z,12.53
2022-10-13T10:26:20.730Z,12.67
2022-10-13T10:32:04.899Z,12.03
2022-10-13T10:37:43.858Z,14.13
2022-10-13T10:42:55.616Z,11.57
2022-10-13T10:48:02.713Z,12.00
2022-10-13T10:53:20.068Z,13.60
2022-10-13T10:58:43.370Z,13.10
2022-10-13T11:04:07.119Z,13.40
2022-10-13T11:09:11.330Z,13.10
2022-10-13T11:14:29.791Z,12.00
2022-10-13T11:19:34.439Z,12.97
2022-10-13T11:24:38.774Z,12.80
2022-10-13T11:29:47.247Z,14.10
2022-10-13T11:35:12.568Z,13.50
2022-10-13T11:40:36.340Z,12.60
2022-10-13T11:45:47.441Z,12.70
2022-10-13T11:51:16.423Z,12.27
2022-10-13T11:56:36.316Z,34.57
2022-10-13T12:01:44.493Z,21.20
2022-10-13T12:06:56.453Z,12.97
2022-10-13T12:12:07.418Z,37.43
2022-10-13T12:17:39.198Z,21.70
2022-10-13T12:22:50.938Z,14.67
2022-10-13T12:27:57.833Z,12.37
2022-10-13T12:33:01.129Z,11.70
2022-10-13T12:38:15.771Z,23.63
2022-10-13T12:43:22.154Z,19.27
2022-10-13T12:48:32.671Z,15.53
2022-10-13T12:53:37.612Z,12.73
2022-10-13T12:58:43.665Z,12.70
2022-10-13T13:03:45.980Z,12.47
2022-10-13T13:09:27.629Z,13.77
2022-10-13T13:14:43.759Z,17.53
2022-10-13T13:19:48.982Z,15.33
2022-10-13T13:24:52.541Z,11.57
2022-10-13T13:29:56.046Z,11.90
2022-10-13T13:34:58.338Z,11.47
2022-10-13T13:40:00.731Z,10.30
2022-10-13T13:45:03.048Z,12.40
2022-10-13T13:50:19.292Z,10.43
2022-10-13T13:55:32.138Z,10.23
2022-10-13T14:00:36.247Z,10.00
2022-10-13T14:05:40.050Z,11.53
2022-10-13T14:10:42.456Z,11.13
2022-10-13T14:15:44.808Z,8.93
2022-10-13T14:20:47.138Z,10.87
2022-10-13T14:25:49.582Z,8.40
2022-10-13T14:30:52.778Z,9.43
2022-10-13T14:36:02.737Z,11.00
2022-10-13T14:41:06.453Z,10.37
2022-10-13T14:46:08.795Z,11.23
2022-10-13T14:51:11.330Z,11.13
2022-10-13T14:56:22.914Z,11.43
2022-10-13T15:01:27.830Z,11.57
2022-10-13T15:06:31.073Z,11.67
2022-10-13T15:11:33.956Z,11.40
2022-10-13T15:16:42.563Z,11.37
2022-10-13T15:21:44.975Z,13.10
2022-10-13T15:26:47.270Z,47.83
2022-10-13T15:31:49.846Z,68.07
2022-10-13T15:36:52.689Z,43.43
2022-10-13T15:41:55.829Z,24.27
2022-10-13T15:47:09.384Z,23.20
2022-10-13T15:52:13.140Z,24.80
2022-10-13T15:57:15.508Z,36.13
2022-10-13T16:02:25.432Z,36.57
2022-10-13T16:07:27.794Z,43.70
2022-10-13T16:12:30.601Z,45.00
2022-10-13T16:17:33.080Z,39.87
2022-10-13T16:22:36.611Z,80.23
2022-10-13T16:27:44.283Z,63.07
2022-10-13T16:32:46.962Z,48.27
2022-10-13T16:37:49.274Z,37.47
2022-10-13T16:42:51.545Z,50.80
2022-10-13T16:47:53.857Z,41.90
2022-10-13T16:52:56.113Z,46.50
2022-10-13T16:57:58.395Z,48.87
2022-10-13T17:03:00.785Z,46.50
2022-10-13T17:08:03.200Z,50.67
2022-10-13T17:13:05.539Z,56.30
2022-10-13T17:18:07.977Z,54.73
2022-10-13T17:23:10.255Z,61.27
2022-10-13T17:28:13.325Z,55.00
2022-10-13T17:33:15.707Z,63.23
2022-10-13T17:38:19.770Z,78.43
2022-10-13T17:43:22.179Z,87.97
2022-10-13T17:48:24.503Z,91.93
2022-10-13T17:53:26.856Z,102.50
2022-10-13T17:58:29.632Z,115.97
2022-10-13T18:03:32.161Z,112.47
2022-10-13T18:08:34.483Z,98.50
2022-10-13T18:13:37.348Z,101.20
2022-10-13T18:18:40.093Z,90.87
2022-10-13T18:23:43.433Z,85.87
2022-10-13T18:28:47.141Z,82.30
2022-10-13T18:33:57.649Z,106.90
2022-10-13T18:39:07.421Z,105.43
2022-10-13T18:44:09.914Z,88.17
2022-10-13T18:49:14.771Z,81.37
2022-10-13T18:54:18.923Z,72.57
2022-10-13T18:59:21.407Z,78.47
2022-10-13T19:04:23.772Z,85.97
2022-10-13T19:09:26.438Z,81.00
2022-10-13T19:14:30.514Z,80.63
2022-10-13T19:19:33.098Z,91.13
2022-10-13T19:24:36.595Z,80.47
2022-10-13T19:29:38.875Z,66.67
2022-10-13T19:34:41.170Z,68.20
2022-10-13T19:39:47.774Z,56.93
2022-10-13T19:44:50.213Z,52.50
2022-10-13T19:49:52.503Z,48.97
2022-10-13T19:54:54.912Z,55.67
2022-10-13T19:59:57.217Z,70.07
2022-10-13T20:04:59.564Z,72.33
2022-10-13T20:10:01.881Z,73.93
2022-10-13T20:15:06.467Z,78.87
2022-10-13T20:20:09.108Z,75.27
2022-10-13T20:25:14.805Z,71.30
2022-10-13T20:30:17.125Z,64.67
2022-10-13T20:35:19.398Z,59.77
2022-10-13T20:40:21.869Z,53.43
2022-10-13T20:45:24.972Z,52.07
2022-10-13T20:50:27.290Z,48.70
2022-10-13T20:55:29.635Z,53.57
2022-10-13T21:00:32.008Z,53.70
2022-10-13T21:05:34.319Z,58.63
2022-10-13T21:10:37.009Z,63.63
2022-10-13T21:15:42.308Z,64.03
2022-10-13T21:20:44.576Z,59.73
2022-10-13T21:25:46.930Z,56.07
2022-10-13T21:30:59.685Z,54.83
2022-10-13T21:36:07.010Z,57.93
2022-10-13T21:41:11.244Z,54.67
2022-10-13T21:46:16.842Z,52.93
2022-10-13T21:51:23.119Z,52.17
2022-10-13T21:56:26.946Z,51.13
2022-10-13T22:01:29.341Z,47.50
2022-10-13T22:06:34.327Z,47.70
2022-10-13T22:11:38.343Z,53.27
2022-10-13T22:16:48.724Z,50.37
2022-10-13T22:21:51.273Z,50.80
2022-10-13T22:26:53.716Z,52.30
2022-10-13T22:31:58.097Z,50.03
2022-10-13T22:37:00.376Z,50.97
2022-10-13T22:42:05.555Z,50.93
2022-10-13T22:47:09.943Z,52.13
2022-10-13T22:52:12.545Z,50.63
2022-10-13T22:57:14.883Z,50.63
2022-10-13T23:02:17.182Z,51.67
2022-10-13T23:07:20.009Z,50.53
2022-10-13T23:12:22.596Z,51.80
2022-10-13T23:17:25.001Z,51.27
2022-10-13T23:22:27.641Z,55.70
2022-10-13T23:27:31.776Z,51.97
2022-10-13T23:32:34.105Z,49.23
2022-10-13T23:37:36.411Z,50.10
2022-10-13T23:42:38.698Z,47.87
2022-10-13T23:47:41.019Z,45.40
2022-10-13T23:52:43.297Z,44.77
2022-10-13T23:57:47.960Z,46.17
